Time;durP1;ratioP1;P1;durP2;ratioP2;P2;SDS_P1;SDS_P2;PMS_P1;PMS_P2;Temp;Humidity;BMP_temperature;BMP_pressure;BME280_temperature;BME280_humidity;BME280_pressure;Samples;Min_cycle;Max_cycle;Signal;HPM_P1;HPM_P2
2022/03/31 00:01:38;;;;;;;31.80;21.98;;;;;;;;;;5048804;28;20057;-65
2022/03/31 00:04:04;;;;;;;27.30;21.50;;;;;;;;;;5050511;28;20104;-66
2022/03/31 00:06:30;;;;;;;32.72;23.98;;;;;;;;;;5045739;28;20025;-64
2022/03/31 00:08:56;;;;;;;32.67;24.40;;;;;;;;;;5045825;28;20123;-64
2022/03/31 00:11:22;;;;;;;31.38;23.48;;;;;;;;;;5045012;28;20092;-65
2022/03/31 00:13:49;;;;;;;29.35;21.95;;;;;;;;;;5045813;28;20025;-64
2022/03/31 00:16:15;;;;;;;29.70;21.42;;;;;;;;;;5053445;28;20483;-64
2022/03/31 00:18:41;;;;;;;26.70;21.02;;;;;;;;;;5045508;28;20069;-64
2022/03/31 00:21:07;;;;;;;27.63;20.83;;;;;;;;;;5043665;28;20106;-64
2022/03/31 00:23:36;;;;;;;28.27;21.15;;;;;;;;;;5045383;28;20032;-64
2022/03/31 00:26:03;;;;;;;26.42;21.20;;;;;;;;;;5045906;28;20072;-64
2022/03/31 00:28:29;;;;;;;26.25;19.90;;;;;;;;;;5050739;28;20021;-64
2022/03/31 00:30:55;;;;;;;27.92;20.27;;;;;;;;;;5050256;28;20052;-64
2022/03/31 00:33:21;;;;;;;24.45;19.77;;;;;;;;;;5042032;28;20032;-64
2022/03/31 00:35:47;;;;;;;24.48;18.98;;;;;;;;;;5046281;28;20033;-64
2022/03/31 00:38:13;;;;;;;25.33;18.33;;;;;;;;;;5045826;28;20072;-64
2022/03/31 00:40:39;;;;;;;24.50;18.77;;;;;;;;;;5048294;28;20056;-64
2022/03/31 00:43:05;;;;;;;26.48;19.50;;;;;;;;;;5053242;28;20087;-64
2022/03/31 00:45:34;;;;;;;24.38;18.67;;;;;;;;;;5044917;28;20075;-64
2022/03/31 00:48:01;;;;;;;26.15;19.50;;;;;;;;;;5045143;28;20481;-64
2022/03/31 00:50:27;;;;;;;30.40;20.95;;;;;;;;;;5044617;28;20036;-64
2022/03/31 00:52:53;;;;;;;27.20;20.42;;;;;;;;;;5041989;28;20495;-64
2022/03/31 00:55:19;;;;;;;26.92;19.70;;;;;;;;;;5052834;28;20032;-64
2022/03/31 00:57:46;;;;;;;27.10;19.35;;;;;;;;;;5041515;28;20029;-64
2022/03/31 01:00:14;;;;;;;24.83;19.40;;;;;;;;;;5040287;28;20071;-64
2022/03/31 01:02:43;;;;;;;25.27;19.15;;;;;;;;;;5045561;28;20025;-64
2022/03/31 01:05:09;;;;;;;26.15;19.55;;;;;;;;;;5044751;28;20026;-64
2022/03/31 01:07:37;;;;;;;26.35;19.50;;;;;;;;;;5047484;28;20532;-64
2022/03/31 01:10:04;;;;;;;25.03;20.00;;;;;;;;;;5049406;28;20024;-64
2022/03/31 01:12:30;;;;;;;26.38;18.90;;;;;;;;;;5043723;28;20028;-63
2022/03/31 01:15:11;;;;;;;28.77;21.27;;;;;;;;;;5043791;28;20158;-64
2022/03/31 01:17:38;;;;;;;30.05;21.42;;;;;;;;;;5044716;28;20024;-64
2022/03/31 01:20:05;;;;;;;32.00;21.98;;;;;;;;;;5044756;28;20370;-64
2022/03/31 01:22:32;;;;;;;31.67;22.10;;;;;;;;;;5047840;28;20435;-64
2022/03/31 01:24:58;;;;;;;30.40;21.50;;;;;;;;;;5046893;28;20033;-64
2022/03/31 01:27:25;;;;;;;30.52;21.20;;;;;;;;;;5046019;28;20028;-64
2022/03/31 01:29:51;;;;;;;34.33;22.55;;;;;;;;;;5045955;28;20031;-64
2022/03/31 01:32:17;;;;;;;30.58;22.92;;;;;;;;;;5044995;28;20041;-65
2022/03/31 01:34:44;;;;;;;30.13;21.98;;;;;;;;;;5044277;28;20033;-64
2022/03/31 01:37:10;;;;;;;30.85;22.10;;;;;;;;;;5049801;28;20427;-65
2022/03/31 01:39:36;;;;;;;33.58;23.27;;;;;;;;;;5044085;28;20028;-64
2022/03/31 01:42:02;;;;;;;32.45;23.83;;;;;;;;;;5043881;28;20028;-64
2022/03/31 01:44:28;;;;;;;34.65;23.73;;;;;;;;;;5043936;28;20035;-64
2022/03/31 01:46:55;;;;;;;30.10;23.17;;;;;;;;;;5044198;28;20104;-65
2022/03/31 01:49:21;;;;;;;31.80;22.15;;;;;;;;;;5051020;28;20033;-64
2022/03/31 01:51:47;;;;;;;33.88;23.13;;;;;;;;;;5043735;28;20021;-64
2022/03/31 01:54:13;;;;;;;32.45;22.30;;;;;;;;;;5043792;28;20033;-64
2022/03/31 01:56:42;;;;;;;27.30;21.55;;;;;;;;;;5043831;28;20052;-64
2022/03/31 01:59:08;;;;;;;28.38;21.98;;;;;;;;;;5035290;28;20042;-64
2022/03/31 02:01:34;;;;;;;31.45;22.58;;;;;;;;;;5047811;28;20532;-64
2022/03/31 02:04:00;;;;;;;29.90;22.77;;;;;;;;;;5047338;28;20107;-64
2022/03/31 02:06:26;;;;;;;35.08;23.13;;;;;;;;;;5042938;28;20165;-64
2022/03/31 02:08:52;;;;;;;27.50;21.05;;;;;;;;;;5043282;28;20029;-64
2022/03/31 02:11:18;;;;;;;26.42;20.08;;;;;;;;;;5043663;28;20541;-64
2022/03/31 02:13:44;;;;;;;28.33;21.85;;;;;;;;;;5045313;28;20113;-64
2022/03/31 02:16:10;;;;;;;29.58;22.40;;;;;;;;;;5049955;28;20025;-63
2022/03/31 02:18:36;;;;;;;29.50;23.02;;;;;;;;;;5041662;28;20116;-64
2022/03/31 02:21:02;;;;;;;31.95;22.92;;;;;;;;;;5043090;28;20495;-64
2022/03/31 02:23:28;;;;;;;31.27;23.15;;;;;;;;;;5043126;28;20106;-64
2022/03/31 02:25:54;;;;;;;30.02;23.40;;;;;;;;;;5043342;28;20107;-64
2022/03/31 02:28:20;;;;;;;29.65;22.77;;;;;;;;;;5050203;28;20163;-64
2022/03/31 02:30:46;;;;;;;30.40;22.55;;;;;;;;;;5048945;28;20046;-64
2022/03/31 02:33:12;;;;;;;29.88;23.60;;;;;;;;;;5038839;28;20029;-64
2022/03/31 02:35:38;;;;;;;35.35;24.23;;;;;;;;;;5042905;28;20032;-64
2022/03/31 02:38:04;;;;;;;31.30;23.67;;;;;;;;;;5043107;28;20386;-64
2022/03/31 02:40:30;;;;;;;29.15;23.00;;;;;;;;;;5047480;28;20057;-64
2022/03/31 02:42:56;;;;;;;31.08;21.60;;;;;;;;;;5044937;28;20017;-64
2022/03/31 02:45:23;;;;;;;29.38;21.65;;;;;;;;;;5042834;28;20044;-64
2022/03/31 02:47:49;;;;;;;30.08;21.27;;;;;;;;;;5043089;28;20032;-64
2022/03/31 02:50:17;;;;;;;28.65;21.85;;;;;;;;;;5042676;28;20021;-64
2022/03/31 02:55:28;;;;;;;28.17;21.55;;;;;;;;;;5042796;28;20179;-64
2022/03/31 02:57:58;;;;;;;29.42;20.83;;;;;;;;;;5040350;28;20013;-64
2022/03/31 03:00:24;;;;;;;27.02;21.00;;;;;;;;;;5039753;28;20021;-64
2022/03/31 03:02:50;;;;;;;29.73;22.55;;;;;;;;;;5043672;28;20511;-64
2022/03/31 03:05:16;;;;;;;29.02;21.83;;;;;;;;;;5042878;28;20059;-64
2022/03/31 03:07:42;;;;;;;30.63;22.50;;;;;;;;;;5044822;28;20030;-64
2022/03/31 03:10:09;;;;;;;29.50;21.77;;;;;;;;;;5049607;28;20083;-64
2022/03/31 03:12:35;;;;;;;29.27;21.50;;;;;;;;;;5045189;28;20412;-64
2022/03/31 03:15:02;;;;;;;35.25;23.60;;;;;;;;;;5042421;28;20017;-64
2022/03/31 03:17:28;;;;;;;27.60;22.30;;;;;;;;;;5042550;28;20069;-64
2022/03/31 03:19:54;;;;;;;32.05;22.38;;;;;;;;;;5039996;28;20037;-66
2022/03/31 03:22:20;;;;;;;30.00;22.48;;;;;;;;;;5032859;28;20025;-65
2022/03/31 03:24:46;;;;;;;28.63;22.17;;;;;;;;;;5032347;28;20458;-63
2022/03/31 03:27:11;;;;;;;29.63;22.70;;;;;;;;;;5031941;28;20029;-64
2022/03/31 03:29:46;;;;;;;29.65;22.58;;;;;;;;;;5032316;28;20076;-64
2022/03/31 03:32:12;;;;;;;29.80;22.92;;;;;;;;;;5030673;28;20056;-64
2022/03/31 03:34:38;;;;;;;28.98;22.05;;;;;;;;;;5029413;28;20463;-64
2022/03/31 03:37:04;;;;;;;29.92;23.05;;;;;;;;;;5048683;28;20120;-64
2022/03/31 03:39:30;;;;;;;27.67;21.63;;;;;;;;;;5042701;28;20045;-64
2022/03/31 03:41:56;;;;;;;30.67;23.05;;;;;;;;;;5042761;28;20029;-63
2022/03/31 03:44:23;;;;;;;32.22;22.60;;;;;;;;;;5041742;28;20099;-64
2022/03/31 03:46:49;;;;;;;31.95;22.58;;;;;;;;;;5043052;28;20017;-64
2022/03/31 03:49:15;;;;;;;28.30;21.48;;;;;;;;;;5050311;28;20396;-64
2022/03/31 03:51:41;;;;;;;32.88;23.65;;;;;;;;;;5042195;28;20025;-64
2022/03/31 03:54:07;;;;;;;24.20;19.20;;;;;;;;;;5042854;28;20444;-64
2022/03/31 03:56:33;;;;;;;26.90;20.45;;;;;;;;;;5046274;28;20029;-64
2022/03/31 03:58:59;;;;;;;27.83;20.90;;;;;;;;;;5037673;28;20037;-65
2022/03/31 04:01:25;;;;;;;32.60;20.88;;;;;;;;;;5052214;28;20024;-64
2022/03/31 04:03:51;;;;;;;28.80;20.92;;;;;;;;;;5047887;28;20400;-64
2022/03/31 04:06:17;;;;;;;28.63;22.40;;;;;;;;;;5045736;28;20100;-65
2022/03/31 04:08:43;;;;;;;32.10;23.38;;;;;;;;;;5047313;28;20083;-65
2022/03/31 04:11:09;;;;;;;29.33;21.95;;;;;;;;;;5046053;28;20026;-65
2022/03/31 04:13:35;;;;;;;33.70;23.65;;;;;;;;;;5050472;28;20029;-66
2022/03/31 04:16:01;;;;;;;28.65;21.70;;;;;;;;;;5050159;28;20559;-65
2022/03/31 04:18:27;;;;;;;31.15;21.90;;;;;;;;;;5043144;28;20047;-65
2022/03/31 04:20:53;;;;;;;30.60;22.08;;;;;;;;;;5045848;28;20025;-66
2022/03/31 04:23:19;;;;;;;30.05;23.00;;;;;;;;;;5047176;28;20030;-65
2022/03/31 04:25:45;;;;;;;29.23;22.75;;;;;;;;;;5047024;28;20097;-65
2022/03/31 04:28:11;;;;;;;32.28;21.95;;;;;;;;;;5051638;28;20025;-66
2022/03/31 04:30:37;;;;;;;28.23;21.67;;;;;;;;;;5046655;28;20128;-66
2022/03/31 04:33:03;;;;;;;28.27;21.17;;;;;;;;;;5045395;28;20132;-65
2022/03/31 04:35:29;;;;;;;29.73;21.25;;;;;;;;;;5044252;28;20022;-65
2022/03/31 04:37:55;;;;;;;29.75;21.17;;;;;;;;;;5044679;28;20026;-65
2022/03/31 04:40:22;;;;;;;29.02;21.52;;;;;;;;;;5051167;28;20663;-66
2022/03/31 04:42:48;;;;;;;29.98;21.23;;;;;;;;;;5049597;28;20060;-65
2022/03/31 04:45:14;;;;;;;30.05;22.40;;;;;;;;;;5040874;28;20028;-66
2022/03/31 04:47:40;;;;;;;28.42;21.55;;;;;;;;;;5045118;28;20088;-66
2022/03/31 04:50:06;;;;;;;27.13;20.25;;;;;;;;;;5045198;28;20053;-65
2022/03/31 04:52:33;;;;;;;29.40;20.60;;;;;;;;;;5049574;28;20025;-65
2022/03/31 04:54:59;;;;;;;25.50;19.42;;;;;;;;;;5047468;28;20025;-65
2022/03/31 04:57:25;;;;;;;26.88;19.55;;;;;;;;;;5043864;28;20469;-66
2022/03/31 04:59:51;;;;;;;21.90;16.05;;;;;;;;;;5038277;28;20058;-65
2022/03/31 05:02:18;;;;;;;20.88;15.07;;;;;;;;;;5044864;28;20017;-66
2022/03/31 05:04:44;;;;;;;19.08;13.75;;;;;;;;;;5046014;28;20033;-70
2022/03/31 05:07:10;;;;;;;20.77;14.20;;;;;;;;;;5049816;28;20517;-69
2022/03/31 05:09:36;;;;;;;21.65;15.15;;;;;;;;;;5040963;28;20380;-69
2022/03/31 05:12:02;;;;;;;25.10;17.52;;;;;;;;;;5037180;28;20021;-69
2022/03/31 05:14:28;;;;;;;25.98;18.63;;;;;;;;;;5033627;28;20112;-70
2022/03/31 05:16:54;;;;;;;27.95;21.02;;;;;;;;;;5034987;28;20623;-69
2022/03/31 05:19:20;;;;;;;28.90;21.02;;;;;;;;;;5051776;28;20029;-69
2022/03/31 05:21:47;;;;;;;29.13;20.85;;;;;;;;;;5046790;28;20021;-69
2022/03/31 05:24:13;;;;;;;28.48;21.42;;;;;;;;;;5044556;28;20025;-69
2022/03/31 05:26:39;;;;;;;32.63;22.42;;;;;;;;;;5045366;28;20522;-69
2022/03/31 05:29:05;;;;;;;28.58;21.50;;;;;;;;;;5031437;28;20109;-70
2022/03/31 05:31:31;;;;;;;30.90;22.10;;;;;;;;;;5034410;28;20060;-68
2022/03/31 05:33:57;;;;;;;27.60;20.90;;;;;;;;;;5047126;28;20033;-67
2022/03/31 05:36:22;;;;;;;30.88;22.48;;;;;;;;;;5043968;28;20442;-69
2022/03/31 05:38:48;;;;;;;30.20;22.05;;;;;;;;;;5044254;28;20071;-74
2022/03/31 05:41:14;;;;;;;30.05;21.40;;;;;;;;;;5044064;28;20052;-68
2022/03/31 05:43:40;;;;;;;30.17;22.33;;;;;;;;;;5046884;28;20408;-72
2022/03/31 05:46:07;;;;;;;27.35;21.13;;;;;;;;;;5049472;28;20031;-70
2022/03/31 05:48:33;;;;;;;29.52;21.17;;;;;;;;;;5045292;28;20372;-71
2022/03/31 05:50:59;;;;;;;31.98;22.30;;;;;;;;;;5044042;28;20029;-70
2022/03/31 05:53:25;;;;;;;29.83;22.38;;;;;;;;;;5037030;28;20024;-66
2022/03/31 05:55:51;;;;;;;28.40;21.30;;;;;;;;;;5043516;28;20037;-67
2022/03/31 05:58:17;;;;;;;25.67;20.55;;;;;;;;;;5043631;28;20335;-66
2022/03/31 06:00:43;;;;;;;27.10;20.88;;;;;;;;;;5043042;28;20060;-67
2022/03/31 06:03:09;;;;;;;28.98;21.25;;;;;;;;;;5043648;28;20515;-66
2022/03/31 06:05:35;;;;;;;28.60;20.95;;;;;;;;;;5043596;28;20025;-67
2022/03/31 06:08:01;;;;;;;30.20;20.80;;;;;;;;;;5043638;28;20100;-65
2022/03/31 06:10:27;;;;;;;27.98;20.92;;;;;;;;;;5048783;28;20029;-65
2022/03/31 06:12:54;;;;;;;28.08;21.50;;;;;;;;;;5046805;28;20361;-66
2022/03/31 06:15:20;;;;;;;30.50;21.52;;;;;;;;;;5043611;28;20033;-65
2022/03/31 06:17:46;;;;;;;30.58;21.63;;;;;;;;;;5043553;28;20028;-67
2022/03/31 06:20:12;;;;;;;32.55;25.52;;;;;;;;;;5043180;28;20039;-66
2022/03/31 06:22:38;;;;;;;29.98;22.38;;;;;;;;;;5046909;28;20036;-67
2022/03/31 06:25:06;;;;;;;33.72;23.85;;;;;;;;;;5049144;28;20469;-66
2022/03/31 06:27:33;;;;;;;28.30;22.23;;;;;;;;;;5046877;28;20025;-67
2022/03/31 06:29:59;;;;;;;29.00;21.65;;;;;;;;;;5036510;28;20555;-66
2022/03/31 06:32:26;;;;;;;33.25;24.15;;;;;;;;;;5043281;28;20167;-66
2022/03/31 06:34:52;;;;;;;31.02;24.35;;;;;;;;;;5042852;28;20030;-66
2022/03/31 06:37:19;;;;;;;30.60;23.33;;;;;;;;;;5049872;28;20499;-67
2022/03/31 06:39:45;;;;;;;28.42;23.05;;;;;;;;;;5043498;28;20032;-66
2022/03/31 06:42:11;;;;;;;31.98;25.27;;;;;;;;;;5042601;28;20025;-66
2022/03/31 06:44:37;;;;;;;28.88;20.90;;;;;;;;;;5042057;28;20487;-66
2022/03/31 06:47:05;;;;;;;26.15;20.92;;;;;;;;;;5044657;28;20013;-66
2022/03/31 06:49:31;;;;;;;30.17;21.05;;;;;;;;;;5048762;28;20066;-66
2022/03/31 06:51:57;;;;;;;28.25;20.58;;;;;;;;;;5048094;28;20036;-66
2022/03/31 06:54:23;;;;;;;26.13;20.77;;;;;;;;;;5039437;28;20028;-66
2022/03/31 06:56:51;;;;;;;28.58;21.23;;;;;;;;;;5042363;28;20025;-66
2022/03/31 06:59:20;;;;;;;28.20;21.85;;;;;;;;;;5034513;28;20438;-66
2022/03/31 07:01:46;;;;;;;27.80;22.42;;;;;;;;;;5044517;28;20053;-66
2022/03/31 07:04:12;;;;;;;27.23;20.77;;;;;;;;;;5049646;28;20056;-66
2022/03/31 07:06:38;;;;;;;26.90;20.83;;;;;;;;;;5044860;28;20442;-66
2022/03/31 07:09:04;;;;;;;25.42;19.45;;;;;;;;;;5042703;28;20021;-66
2022/03/31 07:11:30;;;;;;;28.25;20.08;;;;;;;;;;5041986;28;20014;-63
2022/03/31 07:13:59;;;;;;;25.77;19.67;;;;;;;;;;5042698;28;20034;-65
2022/03/31 07:16:25;;;;;;;27.70;20.63;;;;;;;;;;5049701;28;20112;-65
2022/03/31 07:18:51;;;;;;;25.17;19.85;;;;;;;;;;5046122;28;20124;-65
2022/03/31 07:21:17;;;;;;;24.77;18.98;;;;;;;;;;5038979;28;20053;-65
2022/03/31 07:23:47;;;;;;;25.08;19.15;;;;;;;;;;5042629;28;20044;-65
2022/03/31 07:26:14;;;;;;;25.25;19.02;;;;;;;;;;5042479;28;20484;-65
2022/03/31 07:28:41;;;;;;;23.65;17.88;;;;;;;;;;5045482;28;20082;-66
2022/03/31 07:31:07;;;;;;;23.90;17.55;;;;;;;;;;5051499;28;20056;-65
2022/03/31 07:33:33;;;;;;;21.50;16.50;;;;;;;;;;5046426;28;20025;-66
2022/03/31 07:35:59;;;;;;;24.42;15.82;;;;;;;;;;5042552;28;20085;-65
2022/03/31 07:38:25;;;;;;;20.25;15.30;;;;;;;;;;5047900;28;20029;-64
2022/03/31 07:40:51;;;;;;;18.83;15.30;;;;;;;;;;5046469;28;20104;-66
2022/03/31 07:43:18;;;;;;;19.35;14.70;;;;;;;;;;5053214;28;20027;-64
2022/03/31 07:45:45;;;;;;;20.25;15.10;;;;;;;;;;5046059;28;20032;-66
2022/03/31 07:48:15;;;;;;;19.08;15.30;;;;;;;;;;5047612;28;20419;-65
2022/03/31 07:50:41;;;;;;;20.45;14.80;;;;;;;;;;5046210;28;20460;-65
2022/03/31 07:53:09;;;;;;;19.48;14.85;;;;;;;;;;5045472;28;20021;-65
2022/03/31 07:55:35;;;;;;;17.95;13.82;;;;;;;;;;5050554;28;20138;-65
2022/03/31 07:58:01;;;;;;;17.13;14.25;;;;;;;;;;5041447;28;20021;-65
2022/03/31 08:00:27;;;;;;;19.30;14.18;;;;;;;;;;5043093;28;20040;-65
2022/03/31 08:02:53;;;;;;;17.70;14.35;;;;;;;;;;5046168;28;20100;-65
2022/03/31 08:05:20;;;;;;;18.15;13.38;;;;;;;;;;5045928;28;20067;-64
2022/03/31 08:07:47;;;;;;;16.63;13.38;;;;;;;;;;5046339;28;20022;-65
2022/03/31 08:10:13;;;;;;;21.88;13.90;;;;;;;;;;5052626;28;20028;-65
2022/03/31 08:12:42;;;;;;;20.33;13.45;;;;;;;;;;5045237;28;20083;-66
2022/03/31 08:15:09;;;;;;;18.63;13.13;;;;;;;;;;5045912;28;20033;-67
2022/03/31 08:17:37;;;;;;;16.60;13.10;;;;;;;;;;5045871;28;20358;-65
2022/03/31 08:20:03;;;;;;;15.15;11.02;;;;;;;;;;5045632;28;20315;-65
2022/03/31 08:22:29;;;;;;;16.50;12.00;;;;;;;;;;5051108;28;20028;-65
